Latest Coastal Weather Observations for Cape Nelson

IDS60701

Issued at 4:41 pm CST Saturday 30 July 2016 (issued every 10 minutes, with the page automatically refreshed every 10 minutes)

About coastal observations | Map of coastal stations | Coastal observations for SA | Marine services | Other Formats
Station Details ID: 090184 Name: CAPE NELSON LIGHTHOUSE Lat: -38.43 Lon: 141.54 Height: 45.4 m
Data from the previous 72 hours. | See also: Recent months at Cape Nelson
Date/Time
CST
Temp
°C
Wind Pressure Rain since
9am
mm
Weather Cloud Vis
km
Sea
Height
m
Swell
Dir  Spd
kts
Gust
kts
hPa Trend Height
m
Period
s
Dir
30/04:30pm 13.5 N 16 26 1008.3 - 0.0 - - - - - - -
30/04:20pm 13.5 N 16 26 1008.4 - 0.0 - - - - - - -
30/04:00pm 13.5 N 15 23 1008.2 - 0.0 - - - - - - -
30/03:30pm 13.4 N 15 23 1008.8 - 0.0 - - - - - - -
30/03:07pm 13.3 N 16 27 1009.2 - 0.0 - - - - - - -
30/03:00pm 13.3 N 16 24 1009.3 - 0.0 - - - - - - -
30/02:30pm 13.2 N 18 29 1009.5 - 0.0 - - - - - - -
30/02:00pm 13.4 N 17 28 1010.4 - 0.0 - - - - - - -
30/01:30pm 13.9 N 18 30 1010.9 - 0.0 - - - - - - -
30/01:00pm 14.1 NNW 18 30 1012.0 - 0.0 - - - - - - -
30/12:30pm 14.3 NNW 15 26 1012.7 - 0.0 - - - - - - -
30/12:24pm 14.5 N 15 26 1012.9 - 0.0 - - - - - - -
30/12:00pm 14.1 N 15 24 1013.6 - 0.0 - - - - - - -
30/11:30am 14.1 N 15 22 1013.9 - 0.0 - - - - - - -
30/11:12am 13.9 N 17 27 1014.6 - 0.0 - - - - - - -
30/11:00am 13.6 N 19 27 1014.6 - 0.0 - - - - - - -
30/10:33am 13.4 N 16 26 1014.6 - 0.0 - - - - - - -
30/10:30am 13.3 N 17 25 1014.7 - 0.0 - - - - - - -
30/10:18am 13.9 N 15 25 1015.3 - 0.0 - - - - - - -
30/10:00am 12.6 N 13 20 1016.1 - 0.0 - - - - - - -
30/09:30am 12.0 N 13 19 1016.4 - 0.0 - - - - - - -
30/09:00am 10.9 N 11 18 1016.7 - 0.0 - - - - - - -
30/08:30am 10.4 N 8 13 1017.4 - 0.4 - - - - - - -
30/08:00am 10.1 N 9 12 1017.7 - 0.4 - - - - - - -
30/07:30am 10.0 N 10 13 1017.9 - 0.4 - - - - - - -
30/07:00am 9.9 N 11 17 1017.7 - 0.4 - - - - - - -
30/06:30am 9.9 N 10 15 1018.1 - 0.4 - - - - - - -
30/06:00am 10.1 NNW 10 14 1018.4 - 0.4 - - - - - - -
30/05:30am 10.2 NNW 12 18 1018.5 - 0.4 - - - - - - -
30/05:00am 10.4 NNW 12 19 1018.8 - 0.4 - - - - - - -
30/04:30am 10.5 NNW 9 13 1019.0 - 0.4 - - - - - - -
30/04:00am 10.7 N 9 13 1019.0 - 0.4 - - - - - - -
30/03:30am 10.7 N 9 14 1019.1 - 0.2 - - - - - - -
30/03:00am 10.8 N 8 11 1019.4 - 0.2 - - - - - - -
30/02:30am 11.0 NNW 9 12 1019.9 - 0.2 - - - - - - -
30/02:00am 11.0 NW 9 13 1020.0 - 0.2 - - - - - - -
30/01:30am 10.9 NNW 9 11 1020.3 - 0.2 - - - - - - -
30/01:00am 10.6 NNW 8 11 1020.5 - 0.2 - - - - - - -
30/12:30am 9.7 NNW 7 9 1020.6 - 0.2 - - - - - - -
30/12:00am 9.7 NNW 6 9 1020.8 - 0.2 - - - - - - -
 
Date/Time
CST
Temp
°C
Wind Pressure Rain since
9am
mm
Weather Cloud Vis
km
Sea
Height
m
Swell
Dir  Spd
kts
Gust
kts
hPa Trend Height
m
Period
s
Dir
29/11:30pm 10.1 NNW 7 9 1021.1 - 0.2 - - - - - - -
29/11:00pm 10.4 NNW 7 10 1021.2 - 0.2 - - - - - - -
29/10:30pm 10.7 NNW 7 9 1021.4 - 0.2 - - - - - - -
29/10:00pm 11.1 NW 8 10 1021.4 - 0.2 - - - - - - -
29/09:30pm 11.4 NNW 7 10 1021.5 - 0.2 - - - - - - -
29/09:00pm 11.5 NNW 6 9 1021.5 - 0.2 - - - - - - -
29/08:30pm 11.5 NW 6 7 1021.3 - 0.2 - - - - - - -
29/08:00pm 11.9 NW 6 8 1021.2 - 0.2 - - - - - - -
29/07:30pm 12.3 WNW 7 9 1021.2 - 0.2 - - - - - - -
29/07:00pm 12.8 W 8 11 1021.1 - 0.2 - - - - - - -
29/06:30pm 13.1 WNW 10 14 1020.8 - 0.2 - - - - - - -
29/06:00pm 13.1 W 8 13 1020.6 - 0.2 - - - - - - -
29/05:30pm 13.2 W 9 13 1020.3 - 0.2 - - - - - - -
29/05:00pm 13.3 W 10 15 1020.0 - 0.2 - - - - - - -
29/04:30pm 13.3 W 12 18 1019.9 - 0.2 - - - - - - -
29/04:00pm 12.6 NW 8 15 1019.8 - 0.2 - - - - - - -
29/03:30pm 13.6 W 15 21 1019.7 - 0.2 - - - - - - -
29/03:00pm 13.7 W 14 22 1019.7 - 0.2 - - - - - - -
29/02:30pm 13.7 W 14 20 1019.5 - 0.2 - - - - - - -
29/02:00pm 13.7 W 15 24 1019.7 - 0.2 - - - - - - -
29/01:30pm 13.8 W 14 23 1019.7 - 0.2 - - - - - - -
29/01:00pm 14.4 W 13 19 1019.7 - 0.2 - - - - - - -
29/12:30pm 14.1 W 13 20 1019.9 - 0.2 - - - - - - -
29/12:00pm 14.0 W 17 24 1020.0 - 0.2 - - - - - - -
29/11:30am 13.7 W 18 24 1020.1 - 0.2 - - - - - - -
29/11:00am 13.5 W 12 17 1020.5 - 0.2 - - - - - - -
29/10:30am 13.0 W 17 24 1020.7 - 0.2 - - - - - - -
29/10:00am 11.7 W 24 31 1020.7 - 0.2 - - - - - - -
29/09:35am 12.4 W 21 32 1020.5 - 0.0 - - - - - - -
29/09:30am 12.3 W 20 27 1020.4 - 0.0 - - - - - - -
29/09:08am 13.2 W 19 30 1020.3 - 0.0 - - - - - - -
29/09:00am 13.0 W 16 23 1020.3 - 0.0 - - - - - - -
29/08:30am 12.6 W 17 31 1020.3 - 12.4 Recent precip. - - - - - -
29/08:06am 12.6 W 15 31 1020.1 - 12.4 - - - - - - -
29/08:00am 12.9 W 13 21 1020.1 - 12.2 - - - - - - -
29/07:30am 13.0 W 17 29 1019.8 - 12.2 - - - - - - -
29/07:19am 13.1 W 15 25 1019.8 - 12.2 - - - - - - -
29/07:00am 13.0 W 16 25 1019.6 - 12.2 - - - - - - -
29/06:30am 12.9 W 16 24 1019.3 - 12.2 - - - - - - -
29/06:00am 13.0 W 20 30 1019.1 - 12.2 - - - - - - -
29/05:38am 12.6 W 21 32 1018.8 - 12.2 - - - - - - -
29/05:30am 12.5 W 23 29 1019.0 - 12.2 Recent precip. - - - - - -
29/05:18am 12.9 W 19 32 1018.9 - 12.2 - - - - - - -
29/05:00am 12.3 W 25 33 1018.7 - 12.0 - - - - - - -
29/04:36am 12.6 WNW 18 28 1018.7 - 12.0 - - - - - - -
29/04:30am 12.6 WNW 18 26 1018.7 - 12.0 - - - - - - -
29/04:00am 12.5 WNW 18 25 1018.7 - 12.0 - - - - - - -
29/03:30am 12.7 W 17 26 1018.7 - 12.0 - - - - - - -
29/03:00am 12.5 WNW 18 28 1018.9 - 12.0 - - - - - - -
29/02:30am 12.2 W 19 32 1019.1 - 11.8 Recent precip. - - - - - -
29/02:26am 12.3 WNW 20 32 1019.1 - 11.8 - - - - - - -
29/02:00am 12.3 NW 18 26 1019.2 - 11.4 - - - - - - -
29/01:30am 11.9 NW 19 30 1019.3 - 11.4 - - - - - - -
29/01:12am 12.4 WNW 20 31 1019.3 - 11.4 - - - - - - -
29/01:00am 12.3 WNW 17 24 1019.3 - 11.4 - - - - - - -
29/12:30am 11.7 NW 17 25 1019.7 - 10.4 - - - - - - -
29/12:00am 11.6 NW 17 22 1019.9 - 9.0 - - - - - - -
 
Date/Time
CST
Temp
°C
Wind Pressure Rain since
9am
mm
Weather Cloud Vis
km
Sea
Height
m
Swell
Dir  Spd
kts
Gust
kts
hPa Trend Height
m
Period
s
Dir
28/11:45pm 11.7 NW 17 28 1020.0 - 9.0 - - - - - - -
28/11:30pm 11.7 NW 16 25 1020.1 - 9.0 Rain - - - - - -
28/11:00pm 11.6 NW 18 26 1020.2 - 8.4 - - - - - - -
28/10:30pm 11.5 NW 17 23 1020.4 - 7.8 - - - - - - -
28/10:00pm 11.6 NW 18 24 1020.8 - 5.6 - - - - - - -
28/09:30pm 11.6 NW 19 25 1021.1 - 4.6 - - - - - - -
28/09:00pm 11.6 NW 19 27 1021.0 - 3.8 - - - - - - -
28/08:30pm 11.6 NW 19 25 1021.2 - 2.6 Rain - - - - - -
28/08:05pm 11.6 NW 19 29 1021.3 - 1.8 - - - - - - -
28/08:00pm 11.6 NW 20 29 1021.3 - 1.8 - - - - - - -
28/07:30pm 11.6 NW 20 26 1021.3 - 1.0 - - - - - - -
28/07:08pm 11.8 NW 19 29 1021.4 - 0.8 - - - - - - -
28/07:00pm 11.8 NW 21 30 1021.4 - 0.6 - - - - - - -
28/06:39pm 11.9 NW 19 29 1021.4 - 0.4 - - - - - - -
28/06:30pm 11.9 NW 20 28 1021.4 - 0.4 - - - - - - -
28/06:00pm 12.2 WNW 20 28 1021.4 - 0.4 - - - - - - -
28/05:30pm 12.4 WNW 21 29 1021.3 - 0.2 - - - - - - -
28/05:00pm 12.8 WNW 20 31 1021.3 - 0.2 - - - - - - -
28/04:57pm 13.0 WNW 18 28 1021.2 - 0.2 - - - - - - -
28/04:30pm 12.9 WNW 20 27 1021.4 - 0.2 - - - - - - -
28/04:04pm 13.2 WNW 18 28 1021.3 - 0.2 - - - - - - -
28/04:00pm 13.1 WNW 19 27 1021.3 - 0.0 - - - - - - -
28/03:30pm 13.8 WNW 22 30 1021.3 - 0.0 - - - - - - -
28/03:03pm 14.1 WNW 20 31 1021.1 - 0.0 - - - - - - -
28/03:00pm 14.1 WNW 20 26 1021.2 - 0.0 - - - - - - -
28/02:30pm 13.2 WNW 20 27 1021.3 - 0.0 - - - - - - -
28/02:09pm 13.5 WNW 19 30 1021.3 - 0.0 - - - - - - -
28/02:00pm 13.8 WNW 19 25 1021.3 - 0.0 - - - - - - -
28/01:30pm 13.7 WNW 18 27 1021.5 - 0.0 - - - - - - -
28/01:05pm 13.7 WNW 21 31 1021.7 - 0.0 - - - - - - -
28/01:00pm 14.4 WNW 19 26 1021.7 - 0.0 - - - - - - -
28/12:33pm 13.9 W 21 31 1022.0 - 0.0 - - - - - - -
28/12:30pm 14.0 W 20 28 1022.1 - 0.0 - - - - - - -
28/12:05pm 13.8 W 21 31 1022.2 - 0.0 - - - - - - -
28/12:00pm 14.2 W 20 28 1022.3 - 0.0 - - - - - - -
28/11:35am 13.4 W 19 29 1022.5 - 0.0 - - - - - - -
28/11:30am 13.6 W 21 30 1022.6 - 0.0 - - - - - - -
28/11:00am 13.5 W 21 28 1022.9 - 0.0 - - - - - - -
28/10:35am 13.1 W 15 29 1023.1 - 0.0 - - - - - - -
28/10:30am 13.0 W 16 25 1023.2 - 0.0 - - - - - - -
28/10:00am 12.8 W 19 29 1023.0 - 0.0 - - - - - - -
28/09:34am 12.8 W 20 30 1022.9 - 0.0 - - - - - - -
28/09:30am 12.7 W 23 30 1022.9 - 0.0 - - - - - - -
28/09:16am 13.0 W 20 30 1022.9 - 0.0 - - - - - - -
28/09:00am 12.8 WNW 22 29 1022.8 - 0.0 - - - - - - -
28/08:30am 12.9 W 19 32 1022.5 - 0.6 - - - - - - -
28/08:00am 12.6 W 16 28 1022.2 - 0.6 - - - - - - -
28/07:39am 12.5 W 21 31 1022.1 - 0.6 - - - - - - -
28/07:30am 12.4 W 20 28 1022.0 - 0.6 - - - - - - -
28/07:00am 12.4 W 18 27 1021.8 - 0.6 - - - - - - -
28/06:30am 12.5 WNW 22 30 1021.7 - 0.6 - - - - - - -
28/06:00am 12.6 W 17 31 1021.5 - 0.6 - - - - - - -
28/05:30am 12.3 W 21 33 1021.4 - 0.6 - - - - - - -
28/05:00am 12.7 W 21 33 1021.4 - 0.6 - - - - - - -
28/04:32am 12.9 W 22 37 1020.9 - 0.6 - - - - - - -
28/04:30am 12.9 W 22 31 1020.9 - 0.6 - - - - - - -
28/04:27am 12.9 W 21 31 1021.0 - 0.6 - - - - - - -
28/04:00am 12.9 W 25 34 1020.8 - 0.6 - - - - - - -
28/03:30am 12.9 W 20 32 1020.9 - 0.6 - - - - - - -
28/03:00am 12.5 W 18 28 1020.9 - 0.6 - - - - - - -
28/02:30am 12.5 W 18 28 1021.1 - 0.6 - - - - - - -
28/02:25am 12.4 W 18 28 1021.2 - 0.6 - - - - - - -
28/02:00am 12.3 WNW 20 27 1021.1 - 0.6 - - - - - - -
28/01:30am 11.9 W 17 28 1021.1 - 0.6 - - - - - - -
28/01:02am 12.1 W 18 28 1021.1 - 0.6 - - - - - - -
28/01:00am 12.2 W 20 28 1021.1 - 0.6 - - - - - - -
28/12:30am 12.3 W 18 28 1021.1 - 0.6 - - - - - - -
28/12:00am 11.9 W 16 27 1021.1 - 0.6 - - - - - - -
 
Date/Time
CST
Temp
°C
Wind Pressure Rain since
9am
mm
Weather Cloud Vis
km
Sea
Height
m
Swell
Dir  Spd
kts
Gust
kts
hPa Trend Height
m
Period
s
Dir
27/11:37pm 11.9 W 18 28 1021.3 - 0.6 - - - - - - -
27/11:30pm 11.6 W 19 28 1021.5 - 0.6 - - - - - - -
27/11:00pm 11.7 W 16 27 1021.5 - 0.6 - - - - - - -
27/10:30pm 11.9 W 18 28 1021.4 - 0.6 - - - - - - -
27/10:00pm 12.1 W 16 26 1021.4 - 0.6 - - - - - - -
27/09:31pm 11.8 W 17 27 1021.3 - 0.6 - - - - - - -
27/09:30pm 11.8 W 18 27 1021.3 - 0.6 - - - - - - -
27/09:19pm 11.9 W 19 29 1021.2 - 0.6 - - - - - - -
27/09:00pm 11.6 W 17 26 1021.2 - 0.6 - - - - - - -
27/08:36pm 11.2 W 15 26 1021.2 - 0.4 - - - - - - -
27/08:30pm 11.0 W 19 35 1021.3 - 0.4 Rain - - - - - -
27/08:00pm 10.9 W 17 28 1021.2 - 0.2 - - - - - - -
27/07:33pm 10.7 W 17 30 1021.3 - 0.2 - - - - - - -
27/07:30pm 10.8 W 19 30 1021.4 - 0.2 - - - - - - -
27/07:02pm 11.1 W 24 34 1021.4 - 0.0 - - - - - - -
27/07:00pm 11.1 W 25 34 1021.4 - 0.0 - - - - - - -
27/06:30pm 11.2 W 19 32 1021.0 - 0.0 - - - - - - -
27/06:02pm 12.0 W 20 30 1020.4 - 0.0 - - - - - - -
27/06:00pm 12.0 W 22 30 1020.4 - 0.0 - - - - - - -
27/05:30pm 11.8 W 20 33 1019.6 - 0.0 - - - - - - -
27/05:00pm 11.8 W 17 28 1019.3 - 0.0 - - - - - - -
27/04:30pm 11.7 W 15 26 1019.2 - 0.0 - - - - - - -

Other Formats:

Comma delimited format used in spreadsheet applications
http://www.bom.gov.au/fwo/IDS60701/IDS60701.94826.axf

JavaScript Object Notation format (JSON) in row-major order
http://www.bom.gov.au/fwo/IDS60701/IDS60701.94826.json